GLO1730 SBBE-SBSN
Flight info
| Callsign | GLO1730 |
|---|---|
| Flight time | 1h 3m |
| Altitude | 36000 |
| Route | PAKUT DCT NUVUG |
| Aircraft | B38M/M-SDE1FGHILORVWXY/HB1 |
Departure
| Time | 2026-04-26 10:43 |
|---|---|
| Airport | Val de Cans/Júlio Cezar Ribeiro International Airport (SBBE) |
Arrival
| Time | 2026-04-26 11:47 |
|---|---|
| Airport | Santarém - Maestro Wilson Fonseca International Airport (SBSN) |
| Time | Latitude | Longitude | Altitude | Speed | Heading |
|---|---|---|---|---|---|
| 2026-04-26 10:27 | -1.38996 | -48.47885 | 45 ft | 0 kts | 275° |
| 2026-04-26 10:36 | -1.38996 | -48.47884 | 45 ft | 2 kts | 275° |
| 2026-04-26 10:36 | -1.39000 | -48.47859 | 43 ft | 4 kts | 288° |
| 2026-04-26 10:36 | -1.39003 | -48.47850 | 43 ft | 4 kts | 295° |
| 2026-04-26 10:36 | -1.39018 | -48.47829 | 40 ft | 4 kts | 327° |
| 2026-04-26 10:37 | -1.39035 | -48.47824 | 45 ft | 1 kts | 5° |
| 2026-04-26 10:37 | -1.39039 | -48.47824 | 45 ft | 0 kts | 5° |
| 2026-04-26 10:39 | -1.39023 | -48.47823 | 45 ft | 7 kts | 5° |
| 2026-04-26 10:39 | -1.38930 | -48.47815 | 45 ft | 19 kts | 5° |
| 2026-04-26 10:40 | -1.38799 | -48.47803 | 45 ft | 20 kts | 5° |
| 2026-04-26 10:40 | -1.38694 | -48.47797 | 45 ft | 13 kts | 345° |
| 2026-04-26 10:40 | -1.38671 | -48.47828 | 45 ft | 8 kts | 280° |
| 2026-04-26 10:40 | -1.38671 | -48.47927 | 46 ft | 20 kts | 269° |
| 2026-04-26 10:41 | -1.38674 | -48.48080 | 46 ft | 23 kts | 269° |
| 2026-04-26 10:41 | -1.38687 | -48.48225 | 44 ft | 20 kts | 243° |
| 2026-04-26 10:41 | -1.38758 | -48.48304 | 46 ft | 7 kts | 225° |
| 2026-04-26 10:41 | -1.38797 | -48.48344 | 46 ft | 10 kts | 229° |
| 2026-04-26 10:42 | -1.38816 | -48.48438 | 46 ft | 18 kts | 271° |
| 2026-04-26 10:42 | -1.38791 | -48.48481 | 45 ft | 0 kts | 353° |
| 2026-04-26 10:42 | -1.38773 | -48.48469 | 45 ft | 0 kts | 46° |
| 2026-04-26 10:42 | -1.38771 | -48.48467 | 45 ft | 0 kts | 46° |
| 2026-04-26 10:43 | -1.38559 | -48.48254 | 45 ft | 85 kts | 45° |
| 2026-04-26 10:43 | -1.37968 | -48.47654 | 43 ft | 155 kts | 45° |
| 2026-04-26 10:43 | -1.37144 | -48.46805 | 539 ft | 176 kts | 48° |
| 2026-04-26 10:43 | -1.36254 | -48.45862 | 1245 ft | 187 kts | 47° |
| 2026-04-26 10:44 | -1.35293 | -48.45018 | 2201 ft | 196 kts | 29° |
| 2026-04-26 10:44 | -1.33867 | -48.44854 | 2689 ft | 228 kts | 346° |
| 2026-04-26 10:44 | -1.32478 | -48.45774 | 3270 ft | 254 kts | 305° |
| 2026-04-26 10:44 | -1.31950 | -48.47412 | 4372 ft | 256 kts | 270° |
| 2026-04-26 10:45 | -1.32395 | -48.49165 | 5097 ft | 270 kts | 242° |
| 2026-04-26 10:45 | -1.33217 | -48.50918 | 5868 ft | 285 kts | 246° |
| 2026-04-26 10:45 | -1.33940 | -48.52772 | 6875 ft | 287 kts | 249° |
| 2026-04-26 10:45 | -1.34616 | -48.54668 | 7802 ft | 293 kts | 250° |
| 2026-04-26 10:46 | -1.35268 | -48.56611 | 8755 ft | 296 kts | 251° |
| 2026-04-26 10:46 | -1.36125 | -48.58488 | 9682 ft | 299 kts | 232° |
| 2026-04-26 10:46 | -1.37558 | -48.60009 | 10471 ft | 307 kts | 225° |
| 2026-04-26 10:46 | -1.39097 | -48.61586 | 10929 ft | 326 kts | 225° |
| 2026-04-26 10:47 | -1.40690 | -48.63212 | 11537 ft | 338 kts | 225° |
| 2026-04-26 10:47 | -1.42297 | -48.64934 | 12370 ft | 339 kts | 228° |
| 2026-04-26 10:47 | -1.43865 | -48.66719 | 13166 ft | 344 kts | 228° |
| 2026-04-26 10:47 | -1.45365 | -48.68588 | 13923 ft | 347 kts | 240° |
| 2026-04-26 10:48 | -1.46199 | -48.70845 | 14614 ft | 350 kts | 261° |
| 2026-04-26 10:48 | -1.46433 | -48.73282 | 15232 ft | 355 kts | 265° |
| 2026-04-26 10:48 | -1.46634 | -48.75758 | 15857 ft | 360 kts | 266° |
| 2026-04-26 10:48 | -1.46825 | -48.78268 | 16487 ft | 364 kts | 266° |
| 2026-04-26 10:49 | -1.47012 | -48.80810 | 17110 ft | 369 kts | 266° |
| 2026-04-26 10:49 | -1.47197 | -48.83380 | 17710 ft | 373 kts | 266° |
| 2026-04-26 10:49 | -1.47383 | -48.85976 | 18295 ft | 377 kts | 266° |
| 2026-04-26 10:49 | -1.47572 | -48.88607 | 18797 ft | 381 kts | 266° |
| 2026-04-26 10:50 | -1.47761 | -48.91261 | 19298 ft | 385 kts | 266° |
| 2026-04-26 10:50 | -1.47888 | -48.93040 | 19631 ft | 388 kts | 266° |
| 2026-04-26 10:50 | -1.48147 | -48.96660 | 20286 ft | 393 kts | 266° |
| 2026-04-26 10:50 | -1.48341 | -48.99390 | 20772 ft | 396 kts | 266° |
| 2026-04-26 10:51 | -1.48538 | -49.02151 | 21248 ft | 400 kts | 267° |
| 2026-04-26 10:51 | -1.48938 | -49.07750 | 22190 ft | 408 kts | 267° |
| 2026-04-26 10:51 | -1.49140 | -49.10586 | 22687 ft | 410 kts | 267° |
| 2026-04-26 10:52 | -1.49319 | -49.13398 | 23158 ft | 413 kts | 269° |
| 2026-04-26 10:52 | -1.49386 | -49.16278 | 23580 ft | 416 kts | 270° |
| 2026-04-26 10:52 | -1.49463 | -49.19185 | 23967 ft | 419 kts | 269° |
| 2026-04-26 10:52 | -1.49545 | -49.22105 | 24361 ft | 422 kts | 269° |
| 2026-04-26 10:53 | -1.49630 | -49.25040 | 24753 ft | 424 kts | 269° |
| 2026-04-26 10:53 | -1.49715 | -49.27995 | 25135 ft | 427 kts | 269° |
| 2026-04-26 10:53 | -1.49801 | -49.30965 | 25523 ft | 429 kts | 269° |
| 2026-04-26 10:54 | -1.49975 | -49.36947 | 26320 ft | 433 kts | 269° |
| 2026-04-26 10:54 | -1.50062 | -49.39956 | 26682 ft | 436 kts | 269° |
| 2026-04-26 10:54 | -1.50150 | -49.42990 | 27051 ft | 438 kts | 269° |
| 2026-04-26 10:54 | -1.50238 | -49.46044 | 27405 ft | 441 kts | 269° |
| 2026-04-26 10:55 | -1.50416 | -49.49112 | 27749 ft | 443 kts | 262° |
| 2026-04-26 10:55 | -1.50846 | -49.52170 | 28098 ft | 446 kts | 262° |
| 2026-04-26 10:55 | -1.51282 | -49.55247 | 28460 ft | 448 kts | 262° |
| 2026-04-26 10:55 | -1.51574 | -49.57288 | 28698 ft | 449 kts | 262° |
| 2026-04-26 10:56 | -1.52170 | -49.61439 | 29144 ft | 452 kts | 262° |
| 2026-04-26 10:56 | -1.52619 | -49.64561 | 29471 ft | 455 kts | 261° |
| 2026-04-26 10:56 | -1.53070 | -49.67698 | 29794 ft | 457 kts | 261° |
| 2026-04-26 10:56 | -1.53473 | -49.70500 | 30068 ft | 459 kts | 261° |
| 2026-04-26 10:57 | -1.53928 | -49.73668 | 30331 ft | 462 kts | 261° |
| 2026-04-26 10:57 | -1.54386 | -49.76851 | 30618 ft | 463 kts | 261° |
| 2026-04-26 10:57 | -1.54690 | -49.78966 | 30798 ft | 465 kts | 261° |
| 2026-04-26 10:57 | -1.55300 | -49.83210 | 31156 ft | 467 kts | 261° |
| 2026-04-26 10:58 | -1.55612 | -49.85384 | 31339 ft | 469 kts | 261° |
| 2026-04-26 10:58 | -1.56076 | -49.88612 | 31614 ft | 471 kts | 261° |
| 2026-04-26 10:58 | -1.56695 | -49.92916 | 31952 ft | 473 kts | 261° |
| 2026-04-26 10:58 | -1.57163 | -49.96180 | 32215 ft | 475 kts | 261° |
| 2026-04-26 10:59 | -1.57634 | -49.99457 | 32471 ft | 478 kts | 261° |
| 2026-04-26 10:59 | -1.58107 | -50.02752 | 32716 ft | 480 kts | 261° |
| 2026-04-26 10:59 | -1.58454 | -50.04977 | 32882 ft | 481 kts | 257° |
| 2026-04-26 10:59 | -1.59243 | -50.08225 | 33128 ft | 482 kts | 255° |
| 2026-04-26 11:00 | -1.60026 | -50.11491 | 33363 ft | 485 kts | 255° |
| 2026-04-26 11:00 | -1.60795 | -50.14783 | 33606 ft | 487 kts | 256° |
| 2026-04-26 11:00 | -1.61556 | -50.18082 | 33904 ft | 487 kts | 256° |
| 2026-04-26 11:00 | -1.62306 | -50.21342 | 34206 ft | 487 kts | 255° |
| 2026-04-26 11:01 | -1.63063 | -50.24642 | 34496 ft | 487 kts | 255° |
| 2026-04-26 11:01 | -1.63819 | -50.27933 | 34818 ft | 485 kts | 256° |
| 2026-04-26 11:01 | -1.64574 | -50.31220 | 35127 ft | 484 kts | 256° |
| 2026-04-26 11:01 | -1.65327 | -50.34500 | 35428 ft | 484 kts | 256° |
| 2026-04-26 11:02 | -1.66078 | -50.37772 | 35720 ft | 483 kts | 256° |
| 2026-04-26 11:02 | -1.66829 | -50.41043 | 35956 ft | 483 kts | 256° |
| 2026-04-26 11:02 | -1.68326 | -50.47564 | 35974 ft | 479 kts | 256° |
| 2026-04-26 11:03 | -1.69814 | -50.54046 | 35970 ft | 479 kts | 256° |
| 2026-04-26 11:03 | -1.71302 | -50.60534 | 35974 ft | 479 kts | 256° |
| 2026-04-26 11:04 | -1.72791 | -50.67026 | 35979 ft | 479 kts | 256° |
| 2026-04-26 11:04 | -1.74280 | -50.73515 | 35978 ft | 479 kts | 256° |
| 2026-04-26 11:05 | -1.75767 | -50.80000 | 35977 ft | 479 kts | 256° |
| 2026-04-26 11:05 | -1.77255 | -50.86491 | 35978 ft | 479 kts | 256° |
| 2026-04-26 11:06 | -1.78744 | -50.92985 | 35972 ft | 480 kts | 257° |
| 2026-04-26 11:06 | -1.80091 | -50.99517 | 35977 ft | 480 kts | 261° |
| 2026-04-26 11:07 | -1.81133 | -51.06107 | 35972 ft | 480 kts | 261° |
| 2026-04-26 11:07 | -1.82208 | -51.12651 | 35979 ft | 480 kts | 260° |
| 2026-04-26 11:08 | -1.83294 | -51.19232 | 35980 ft | 480 kts | 260° |
| 2026-04-26 11:08 | -1.84381 | -51.25824 | 35981 ft | 480 kts | 260° |
| 2026-04-26 11:09 | -1.85468 | -51.32416 | 35978 ft | 480 kts | 260° |
| 2026-04-26 11:09 | -1.86553 | -51.38995 | 35974 ft | 479 kts | 260° |
| 2026-04-26 11:10 | -1.87634 | -51.45558 | 35979 ft | 478 kts | 260° |
| 2026-04-26 11:10 | -1.88716 | -51.52125 | 35975 ft | 478 kts | 260° |
| 2026-04-26 11:11 | -1.89797 | -51.58690 | 35980 ft | 478 kts | 261° |
| 2026-04-26 11:11 | -1.90878 | -51.65251 | 35977 ft | 478 kts | 261° |
| 2026-04-26 11:12 | -1.91957 | -51.71803 | 35977 ft | 478 kts | 261° |
| 2026-04-26 11:12 | -1.93037 | -51.78362 | 35979 ft | 478 kts | 261° |
| 2026-04-26 11:13 | -1.94116 | -51.84922 | 35980 ft | 478 kts | 261° |
| 2026-04-26 11:13 | -1.95189 | -51.91441 | 35982 ft | 478 kts | 261° |
| 2026-04-26 11:14 | -1.96267 | -51.97999 | 35983 ft | 478 kts | 261° |
| 2026-04-26 11:14 | -1.97346 | -52.04559 | 35984 ft | 478 kts | 261° |
| 2026-04-26 11:15 | -1.98424 | -52.11115 | 35983 ft | 478 kts | 260° |
| 2026-04-26 11:15 | -1.99502 | -52.17672 | 35980 ft | 478 kts | 260° |
| 2026-04-26 11:16 | -2.00579 | -52.24227 | 35978 ft | 478 kts | 260° |
| 2026-04-26 11:16 | -2.01656 | -52.30783 | 35985 ft | 478 kts | 260° |
| 2026-04-26 11:17 | -2.02732 | -52.37336 | 35980 ft | 478 kts | 260° |
| 2026-04-26 11:17 | -2.03809 | -52.43895 | 35981 ft | 478 kts | 260° |
| 2026-04-26 11:18 | -2.04886 | -52.50457 | 35981 ft | 478 kts | 260° |
| 2026-04-26 11:18 | -2.05962 | -52.57015 | 35984 ft | 478 kts | 260° |
| 2026-04-26 11:19 | -2.07038 | -52.63572 | 35980 ft | 478 kts | 260° |
| 2026-04-26 11:19 | -2.08107 | -52.70087 | 35984 ft | 478 kts | 260° |
| 2026-04-26 11:20 | -2.09008 | -52.75583 | 35984 ft | 478 kts | 260° |
| 2026-04-26 11:20 | -2.10258 | -52.83210 | 35983 ft | 478 kts | 261° |
| 2026-04-26 11:21 | -2.11333 | -52.89769 | 35979 ft | 478 kts | 261° |
| 2026-04-26 11:21 | -2.12404 | -52.96304 | 35480 ft | 473 kts | 261° |
| 2026-04-26 11:22 | -2.12940 | -52.99573 | 34579 ft | 480 kts | 261° |
| 2026-04-26 11:22 | -2.13483 | -53.02895 | 33648 ft | 488 kts | 261° |
| 2026-04-26 11:22 | -2.14033 | -53.06249 | 32921 ft | 488 kts | 261° |
| 2026-04-26 11:22 | -2.14578 | -53.09580 | 32470 ft | 482 kts | 261° |
| 2026-04-26 11:23 | -2.15115 | -53.12858 | 32096 ft | 475 kts | 261° |
| 2026-04-26 11:23 | -2.15646 | -53.16100 | 31631 ft | 470 kts | 261° |
| 2026-04-26 11:23 | -2.16167 | -53.19282 | 31092 ft | 468 kts | 260° |
| 2026-04-26 11:23 | -2.16691 | -53.22489 | 30523 ft | 467 kts | 260° |
| 2026-04-26 11:24 | -2.17215 | -53.25688 | 29993 ft | 465 kts | 260° |
| 2026-04-26 11:24 | -2.17735 | -53.28871 | 29417 ft | 462 kts | 260° |
| 2026-04-26 11:24 | -2.18251 | -53.32025 | 28899 ft | 458 kts | 260° |
| 2026-04-26 11:24 | -2.18763 | -53.35155 | 28425 ft | 453 kts | 261° |
| 2026-04-26 11:25 | -2.19270 | -53.38252 | 27937 ft | 449 kts | 261° |
| 2026-04-26 11:25 | -2.19771 | -53.41316 | 27471 ft | 445 kts | 261° |
| 2026-04-26 11:25 | -2.20268 | -53.44357 | 27003 ft | 441 kts | 261° |
| 2026-04-26 11:25 | -2.20761 | -53.47373 | 26542 ft | 438 kts | 261° |
| 2026-04-26 11:26 | -2.21250 | -53.50364 | 26092 ft | 434 kts | 261° |
| 2026-04-26 11:26 | -2.21735 | -53.53330 | 25646 ft | 431 kts | 261° |
| 2026-04-26 11:26 | -2.22216 | -53.56278 | 25203 ft | 428 kts | 261° |
| 2026-04-26 11:26 | -2.22695 | -53.59206 | 24769 ft | 425 kts | 261° |
| 2026-04-26 11:27 | -2.23169 | -53.62111 | 24325 ft | 422 kts | 261° |
| 2026-04-26 11:27 | -2.23635 | -53.64961 | 23919 ft | 420 kts | 261° |
| 2026-04-26 11:27 | -2.24104 | -53.67832 | 23487 ft | 417 kts | 261° |
| 2026-04-26 11:27 | -2.24571 | -53.70689 | 22994 ft | 415 kts | 261° |
| 2026-04-26 11:28 | -2.25033 | -53.73521 | 22561 ft | 411 kts | 261° |
| 2026-04-26 11:28 | -2.25491 | -53.76322 | 22146 ft | 407 kts | 261° |
| 2026-04-26 11:28 | -2.25945 | -53.79100 | 21748 ft | 403 kts | 261° |
| 2026-04-26 11:28 | -2.26395 | -53.81858 | 21340 ft | 400 kts | 261° |
| 2026-04-26 11:29 | -2.26700 | -53.84612 | 20891 ft | 398 kts | 266° |
| 2026-04-26 11:29 | -2.26897 | -53.87359 | 20519 ft | 394 kts | 266° |
| 2026-04-26 11:29 | -2.27108 | -53.90079 | 20160 ft | 391 kts | 266° |
| 2026-04-26 11:29 | -2.27326 | -53.92782 | 19774 ft | 388 kts | 265° |
| 2026-04-26 11:30 | -2.27547 | -53.95465 | 19386 ft | 386 kts | 265° |
| 2026-04-26 11:30 | -2.27694 | -53.97232 | 19130 ft | 385 kts | 265° |
| 2026-04-26 11:30 | -2.27990 | -54.00788 | 18618 ft | 383 kts | 265° |
| 2026-04-26 11:30 | -2.28209 | -54.03435 | 18222 ft | 381 kts | 265° |
| 2026-04-26 11:31 | -2.28429 | -54.06073 | 17788 ft | 379 kts | 265° |
| 2026-04-26 11:31 | -2.28646 | -54.08690 | 17386 ft | 377 kts | 265° |
| 2026-04-26 11:31 | -2.28862 | -54.11292 | 17003 ft | 374 kts | 265° |
| 2026-04-26 11:31 | -2.29076 | -54.13872 | 16624 ft | 371 kts | 265° |
| 2026-04-26 11:32 | -2.29289 | -54.16436 | 16248 ft | 369 kts | 265° |
| 2026-04-26 11:32 | -2.29501 | -54.18983 | 15874 ft | 366 kts | 265° |
| 2026-04-26 11:32 | -2.29711 | -54.21511 | 15502 ft | 364 kts | 265° |
| 2026-04-26 11:32 | -2.29919 | -54.24027 | 15131 ft | 362 kts | 265° |
| 2026-04-26 11:33 | -2.30126 | -54.26526 | 14759 ft | 360 kts | 265° |
| 2026-04-26 11:33 | -2.30332 | -54.29009 | 14393 ft | 358 kts | 265° |
| 2026-04-26 11:33 | -2.30534 | -54.31448 | 14034 ft | 356 kts | 265° |
| 2026-04-26 11:33 | -2.30738 | -54.33910 | 13658 ft | 354 kts | 265° |
| 2026-04-26 11:34 | -2.30942 | -54.36360 | 13254 ft | 353 kts | 265° |
| 2026-04-26 11:34 | -2.31143 | -54.38791 | 12878 ft | 350 kts | 265° |
| 2026-04-26 11:34 | -2.31343 | -54.41208 | 12514 ft | 347 kts | 265° |
| 2026-04-26 11:34 | -2.31541 | -54.43604 | 12164 ft | 345 kts | 265° |
| 2026-04-26 11:35 | -2.31739 | -54.45985 | 11799 ft | 342 kts | 265° |
| 2026-04-26 11:35 | -2.31934 | -54.48348 | 11451 ft | 340 kts | 265° |
| 2026-04-26 11:35 | -2.32128 | -54.50693 | 11101 ft | 338 kts | 265° |
| 2026-04-26 11:35 | -2.32256 | -54.52239 | 10870 ft | 336 kts | 265° |
| 2026-04-26 11:36 | -2.32513 | -54.55344 | 10400 ft | 334 kts | 265° |
| 2026-04-26 11:36 | -2.32704 | -54.57651 | 10128 ft | 330 kts | 265° |
| 2026-04-26 11:36 | -2.32891 | -54.59909 | 9956 ft | 322 kts | 265° |
| 2026-04-26 11:36 | -2.33075 | -54.62133 | 9632 ft | 320 kts | 265° |
| 2026-04-26 11:37 | -2.33257 | -54.64347 | 9250 ft | 319 kts | 265° |
| 2026-04-26 11:37 | -2.33440 | -54.66559 | 8895 ft | 318 kts | 265° |
| 2026-04-26 11:37 | -2.33622 | -54.68752 | 8552 ft | 316 kts | 265° |
| 2026-04-26 11:37 | -2.33802 | -54.70937 | 8216 ft | 314 kts | 265° |
| 2026-04-26 11:38 | -2.33982 | -54.73111 | 7879 ft | 313 kts | 265° |
| 2026-04-26 11:38 | -2.34160 | -54.75272 | 7541 ft | 312 kts | 265° |
| 2026-04-26 11:38 | -2.34338 | -54.77426 | 7204 ft | 310 kts | 266° |
| 2026-04-26 11:38 | -2.34515 | -54.79573 | 6864 ft | 309 kts | 266° |
| 2026-04-26 11:39 | -2.34692 | -54.81712 | 6526 ft | 308 kts | 266° |
| 2026-04-26 11:39 | -2.34868 | -54.83846 | 6170 ft | 308 kts | 266° |
| 2026-04-26 11:39 | -2.35042 | -54.85948 | 5814 ft | 307 kts | 266° |
| 2026-04-26 11:39 | -2.35215 | -54.88046 | 5460 ft | 298 kts | 266° |
| 2026-04-26 11:40 | -2.35382 | -54.90070 | 5153 ft | 289 kts | 266° |
| 2026-04-26 11:40 | -2.35546 | -54.92067 | 4862 ft | 287 kts | 266° |
| 2026-04-26 11:40 | -2.35709 | -54.94036 | 4676 ft | 281 kts | 266° |
| 2026-04-26 11:40 | -2.35878 | -54.95953 | 4540 ft | 272 kts | 263° |
| 2026-04-26 11:41 | -2.36541 | -54.97662 | 4445 ft | 257 kts | 233° |
| 2026-04-26 11:42 | -2.44840 | -54.95707 | 3276 ft | 170 kts | 88° |
| 2026-04-26 11:43 | -2.44678 | -54.94542 | 3110 ft | 171 kts | 81° |
| 2026-04-26 11:43 | -2.44503 | -54.93363 | 2911 ft | 171 kts | 81° |
| 2026-04-26 11:43 | -2.44329 | -54.92203 | 2650 ft | 171 kts | 81° |
| 2026-04-26 11:43 | -2.44150 | -54.91018 | 2379 ft | 169 kts | 80° |
| 2026-04-26 11:44 | -2.43971 | -54.89890 | 2131 ft | 156 kts | 79° |
| 2026-04-26 11:44 | -2.43807 | -54.88886 | 1946 ft | 143 kts | 80° |
| 2026-04-26 11:44 | -2.43649 | -54.87920 | 1709 ft | 139 kts | 78° |
| 2026-04-26 11:44 | -2.43492 | -54.86963 | 1526 ft | 139 kts | 80° |
| 2026-04-26 11:45 | -2.43335 | -54.86001 | 1332 ft | 142 kts | 80° |
| 2026-04-26 11:45 | -2.43176 | -54.85021 | 1122 ft | 142 kts | 79° |
| 2026-04-26 11:45 | -2.43015 | -54.84044 | 952 ft | 143 kts | 81° |
| 2026-04-26 11:45 | -2.42853 | -54.83055 | 744 ft | 146 kts | 81° |
| 2026-04-26 11:46 | -2.42689 | -54.82050 | 571 ft | 147 kts | 82° |
| 2026-04-26 11:46 | -2.42523 | -54.81043 | 418 ft | 146 kts | 83° |
| 2026-04-26 11:46 | -2.42361 | -54.80047 | 220 ft | 142 kts | 84° |
| 2026-04-26 11:46 | -2.42224 | -54.79190 | 212 ft | 96 kts | 80° |
| 2026-04-26 11:47 | -2.42146 | -54.78714 | 214 ft | 59 kts | 81° |
| 2026-04-26 11:47 | -2.42109 | -54.78493 | 209 ft | 44 kts | 81° |
| 2026-04-26 11:47 | -2.42076 | -54.78278 | 209 ft | 22 kts | 92° |
| 2026-04-26 11:47 | -2.42151 | -54.78251 | 208 ft | 14 kts | 200° |
| 2026-04-26 11:48 | -2.42246 | -54.78292 | 214 ft | 16 kts | 205° |
| 2026-04-26 11:48 | -2.42303 | -54.78365 | 211 ft | 15 kts | 276° |
| 2026-04-26 11:48 | -2.42305 | -54.78475 | 211 ft | 17 kts | 257° |
| 2026-04-26 11:48 | -2.42346 | -54.78564 | 218 ft | 1 kts | 233° |
| 2026-04-26 11:49 | -2.42353 | -54.78572 | 212 ft | 3 kts | 229° |
| 2026-04-26 11:49 | -2.42370 | -54.78589 | 211 ft | 4 kts | 210° |
| 2026-04-26 11:49 | -2.42387 | -54.78586 | 212 ft | 3 kts | 137° |
| 2026-04-26 11:49 | -2.42398 | -54.78573 | 208 ft | 2 kts | 133° |
| 2026-04-26 11:50 | -2.42405 | -54.78566 | 208 ft | 0 kts | 132° |